Terminal Aerodrome Forecast
Issued by NWS

Home | Current Version | Previous Version | Text Only | Print | Product List | Glossary On
Versions: 1 2 3 4 5 6 7 8 9 10 11 12 13 14 15 16 17 18 19 20 21 22 23 24 25 26 27 28 29 30 31
000
FTUS41 KBUF 061711 AAC
TAFJHW
TAF AMD
KJHW 061711Z 0617/0712 15005KT P6SM VCSH OVC008
     FM061900 13007KT P6SM SCT008 OVC020
     FM070100 13004KT P6SM BKN030
     FM070600 15004KT 3SM BR BKN030
     FM070800 15004KT 3SM BR BKN090
     FM070900 15003KT 3SM BR BKN007
      AMD LTD TO CLD VIS AND WIND=

USA.gov is the U.S. government's official web portal to all federal, state and local government web resources and services.